sensor_id;sensor_type;location;lat;lon;timestamp;temperature;humidity
43151;DHT22;28755;51.478;5.702;2023-03-02T00:01:40;1.50;99.90
43151;DHT22;28755;51.478;5.702;2023-03-02T00:04:11;1.50;99.90
43151;DHT22;28755;51.478;5.702;2023-03-02T00:06:38;1.50;99.90
43151;DHT22;28755;51.478;5.702;2023-03-02T00:09:05;1.40;99.90
43151;DHT22;28755;51.478;5.702;2023-03-02T00:11:33;1.30;99.90
43151;DHT22;28755;51.478;5.702;2023-03-02T00:13:59;1.40;99.90
43151;DHT22;28755;51.478;5.702;2023-03-02T00:16:25;1.40;99.90
43151;DHT22;28755;51.478;5.702;2023-03-02T00:18:51;1.40;99.90
43151;DHT22;28755;51.478;5.702;2023-03-02T00:21:16;1.40;99.90
43151;DHT22;28755;51.478;5.702;2023-03-02T00:23:42;1.30;99.90
43151;DHT22;28755;51.478;5.702;2023-03-02T00:26:07;1.30;99.90
43151;DHT22;28755;51.478;5.702;2023-03-02T00:28:33;1.40;99.90
43151;DHT22;28755;51.478;5.702;2023-03-02T00:31:02;1.40;99.90
43151;DHT22;28755;51.478;5.702;2023-03-02T00:33:28;1.40;99.90
43151;DHT22;28755;51.478;5.702;2023-03-02T00:35:54;1.40;99.90
43151;DHT22;28755;51.478;5.702;2023-03-02T00:38:19;1.40;99.90
43151;DHT22;28755;51.478;5.702;2023-03-02T00:40:46;1.30;99.90
43151;DHT22;28755;51.478;5.702;2023-03-02T00:43:13;1.30;99.90
43151;DHT22;28755;51.478;5.702;2023-03-02T00:45:38;1.30;99.90
43151;DHT22;28755;51.478;5.702;2023-03-02T00:48:04;1.40;99.90
43151;DHT22;28755;51.478;5.702;2023-03-02T00:50:30;1.30;99.90
43151;DHT22;28755;51.478;5.702;2023-03-02T00:52:56;1.40;99.90
43151;DHT22;28755;51.478;5.702;2023-03-02T00:55:21;1.20;99.90
43151;DHT22;28755;51.478;5.702;2023-03-02T00:57:47;1.20;99.90
43151;DHT22;28755;51.478;5.702;2023-03-02T01:00:20;1.20;99.90
43151;DHT22;28755;51.478;5.702;2023-03-02T01:02:46;1.20;99.90
43151;DHT22;28755;51.478;5.702;2023-03-02T01:05:12;1.20;99.90
43151;DHT22;28755;51.478;5.702;2023-03-02T01:07:37;1.10;99.90
43151;DHT22;28755;51.478;5.702;2023-03-02T01:10:03;1.10;99.90
43151;DHT22;28755;51.478;5.702;2023-03-02T01:12:30;1.10;99.90
43151;DHT22;28755;51.478;5.702;2023-03-02T01:14:56;1.10;99.90
43151;DHT22;28755;51.478;5.702;2023-03-02T01:17:22;1.10;99.90
43151;DHT22;28755;51.478;5.702;2023-03-02T01:19:50;1.10;99.90
43151;DHT22;28755;51.478;5.702;2023-03-02T01:22:17;1.10;99.90
43151;DHT22;28755;51.478;5.702;2023-03-02T01:24:42;1.10;99.90
43151;DHT22;28755;51.478;5.702;2023-03-02T01:27:09;1.00;99.90
43151;DHT22;28755;51.478;5.702;2023-03-02T01:29:35;1.00;99.90
43151;DHT22;28755;51.478;5.702;2023-03-02T01:32:01;1.00;99.90
43151;DHT22;28755;51.478;5.702;2023-03-02T01:34:26;1.00;99.90
43151;DHT22;28755;51.478;5.702;2023-03-02T01:36:52;1.00;99.90
43151;DHT22;28755;51.478;5.702;2023-03-02T01:39:18;0.90;99.90
43151;DHT22;28755;51.478;5.702;2023-03-02T01:41:47;0.90;99.90
43151;DHT22;28755;51.478;5.702;2023-03-02T01:44:36;0.90;99.90
43151;DHT22;28755;51.478;5.702;2023-03-02T01:47:18;0.90;99.90
43151;DHT22;28755;51.478;5.702;2023-03-02T01:49:50;0.90;99.90
43151;DHT22;28755;51.478;5.702;2023-03-02T01:52:17;0.80;99.90
43151;DHT22;28755;51.478;5.702;2023-03-02T01:54:43;0.90;99.90
43151;DHT22;28755;51.478;5.702;2023-03-02T01:57:18;0.90;99.90
43151;DHT22;28755;51.478;5.702;2023-03-02T01:59:45;0.90;99.90
43151;DHT22;28755;51.478;5.702;2023-03-02T02:02:12;0.80;99.90
43151;DHT22;28755;51.478;5.702;2023-03-02T02:04:39;0.80;99.90
43151;DHT22;28755;51.478;5.702;2023-03-02T02:07:08;0.80;99.90
43151;DHT22;28755;51.478;5.702;2023-03-02T02:09:42;0.80;99.90
43151;DHT22;28755;51.478;5.702;2023-03-02T02:12:16;0.90;99.90
43151;DHT22;28755;51.478;5.702;2023-03-02T02:14:43;0.90;99.90
43151;DHT22;28755;51.478;5.702;2023-03-02T02:17:10;0.80;99.90
43151;DHT22;28755;51.478;5.702;2023-03-02T02:19:45;0.70;99.90
43151;DHT22;28755;51.478;5.702;2023-03-02T02:22:14;0.80;99.90
43151;DHT22;28755;51.478;5.702;2023-03-02T02:24:51;0.80;99.90
43151;DHT22;28755;51.478;5.702;2023-03-02T02:27:18;0.80;99.90
43151;DHT22;28755;51.478;5.702;2023-03-02T02:29:47;0.80;99.90
43151;DHT22;28755;51.478;5.702;2023-03-02T02:32:20;0.80;99.90
43151;DHT22;28755;51.478;5.702;2023-03-02T02:35:24;0.80;99.90
43151;DHT22;28755;51.478;5.702;2023-03-02T02:37:56;0.80;99.90
43151;DHT22;28755;51.478;5.702;2023-03-02T02:40:59;0.70;99.90
43151;DHT22;28755;51.478;5.702;2023-03-02T02:43:27;0.70;99.90
43151;DHT22;28755;51.478;5.702;2023-03-02T02:45:56;0.70;99.90
43151;DHT22;28755;51.478;5.702;2023-03-02T02:48:24;0.60;99.90
43151;DHT22;28755;51.478;5.702;2023-03-02T02:50:51;0.60;99.90
43151;DHT22;28755;51.478;5.702;2023-03-02T02:53:29;0.60;99.90
43151;DHT22;28755;51.478;5.702;2023-03-02T02:55:57;0.50;99.90
43151;DHT22;28755;51.478;5.702;2023-03-02T02:58:39;0.60;99.90
43151;DHT22;28755;51.478;5.702;2023-03-02T03:01:06;0.50;99.90
43151;DHT22;28755;51.478;5.702;2023-03-02T03:03:35;0.60;99.90
43151;DHT22;28755;51.478;5.702;2023-03-02T03:06:06;0.50;99.90
43151;DHT22;28755;51.478;5.702;2023-03-02T03:08:48;0.60;99.90
43151;DHT22;28755;51.478;5.702;2023-03-02T03:11:18;0.50;99.90
43151;DHT22;28755;51.478;5.702;2023-03-02T03:14:00;0.50;99.90
43151;DHT22;28755;51.478;5.702;2023-03-02T03:16:29;0.50;99.90
43151;DHT22;28755;51.478;5.702;2023-03-02T03:18:57;0.50;99.90
43151;DHT22;28755;51.478;5.702;2023-03-02T03:21:25;0.40;99.90
43151;DHT22;28755;51.478;5.702;2023-03-02T03:23:51;0.40;99.90
43151;DHT22;28755;51.478;5.702;2023-03-02T03:26:17;0.40;99.90
43151;DHT22;28755;51.478;5.702;2023-03-02T03:28:42;0.40;99.90
43151;DHT22;28755;51.478;5.702;2023-03-02T03:31:08;0.30;99.90
43151;DHT22;28755;51.478;5.702;2023-03-02T03:33:33;0.30;99.90
43151;DHT22;28755;51.478;5.702;2023-03-02T03:35:59;0.30;99.90
43151;DHT22;28755;51.478;5.702;2023-03-02T03:38:25;0.30;99.90
43151;DHT22;28755;51.478;5.702;2023-03-02T03:40:51;0.30;99.90
43151;DHT22;28755;51.478;5.702;2023-03-02T03:43:16;0.30;99.90
43151;DHT22;28755;51.478;5.702;2023-03-02T03:45:42;0.30;99.90
43151;DHT22;28755;51.478;5.702;2023-03-02T03:48:08;0.20;99.90
43151;DHT22;28755;51.478;5.702;2023-03-02T03:50:33;0.20;99.90
43151;DHT22;28755;51.478;5.702;2023-03-02T03:52:59;0.20;99.90
43151;DHT22;28755;51.478;5.702;2023-03-02T03:55:25;0.30;99.90
43151;DHT22;28755;51.478;5.702;2023-03-02T03:57:53;0.20;99.90
43151;DHT22;28755;51.478;5.702;2023-03-02T04:00:19;0.20;99.90
43151;DHT22;28755;51.478;5.702;2023-03-02T04:02:45;0.20;99.90
43151;DHT22;28755;51.478;5.702;2023-03-02T04:05:11;0.20;99.90
43151;DHT22;28755;51.478;5.702;2023-03-02T04:07:38;0.30;99.90
43151;DHT22;28755;51.478;5.702;2023-03-02T04:10:05;0.20;99.90
43151;DHT22;28755;51.478;5.702;2023-03-02T04:12:33;0.20;99.90
43151;DHT22;28755;51.478;5.702;2023-03-02T04:14:59;0.30;99.90
43151;DHT22;28755;51.478;5.702;2023-03-02T04:17:26;0.30;99.90
43151;DHT22;28755;51.478;5.702;2023-03-02T04:19:52;0.20;99.90
43151;DHT22;28755;51.478;5.702;2023-03-02T04:22:17;0.30;99.90
43151;DHT22;28755;51.478;5.702;2023-03-02T04:24:45;0.20;99.90
43151;DHT22;28755;51.478;5.702;2023-03-02T04:27:10;0.20;99.90
43151;DHT22;28755;51.478;5.702;2023-03-02T04:29:36;0.20;99.90
43151;DHT22;28755;51.478;5.702;2023-03-02T04:32:02;0.20;99.90
43151;DHT22;28755;51.478;5.702;2023-03-02T04:34:28;0.20;99.90
43151;DHT22;28755;51.478;5.702;2023-03-02T04:36:54;0.20;99.90
43151;DHT22;28755;51.478;5.702;2023-03-02T04:39:20;0.20;99.90
43151;DHT22;28755;51.478;5.702;2023-03-02T04:41:46;0.20;99.90
43151;DHT22;28755;51.478;5.702;2023-03-02T04:44:13;0.10;99.90
43151;DHT22;28755;51.478;5.702;2023-03-02T04:46:39;0.10;99.90
43151;DHT22;28755;51.478;5.702;2023-03-02T04:49:05;0.10;99.90
43151;DHT22;28755;51.478;5.702;2023-03-02T04:51:34;0.10;99.90
43151;DHT22;28755;51.478;5.702;2023-03-02T04:54:03;0.10;99.90
43151;DHT22;28755;51.478;5.702;2023-03-02T04:56:29;0.10;99.90
43151;DHT22;28755;51.478;5.702;2023-03-02T04:58:55;0.10;99.90
43151;DHT22;28755;51.478;5.702;2023-03-02T05:01:21;0.00;99.90
43151;DHT22;28755;51.478;5.702;2023-03-02T05:03:47;0.10;99.90
43151;DHT22;28755;51.478;5.702;2023-03-02T05:06:13;0.00;99.90
43151;DHT22;28755;51.478;5.702;2023-03-02T05:08:39;0.00;99.90
43151;DHT22;28755;51.478;5.702;2023-03-02T05:11:05;0.00;99.90
43151;DHT22;28755;51.478;5.702;2023-03-02T05:13:33;0.10;99.90
43151;DHT22;28755;51.478;5.702;2023-03-02T05:15:59;0.00;99.90
43151;DHT22;28755;51.478;5.702;2023-03-02T05:18:24;0.00;99.90
43151;DHT22;28755;51.478;5.702;2023-03-02T05:20:51;0.10;99.90
43151;DHT22;28755;51.478;5.702;2023-03-02T05:23:18;0.00;99.90
43151;DHT22;28755;51.478;5.702;2023-03-02T05:25:54;0.10;99.90
43151;DHT22;28755;51.478;5.702;2023-03-02T05:28:21;0.00;99.90
43151;DHT22;28755;51.478;5.702;2023-03-02T05:30:48;0.00;99.90
43151;DHT22;28755;51.478;5.702;2023-03-02T05:33:14;0.00;99.90
43151;DHT22;28755;51.478;5.702;2023-03-02T05:35:41;-0.10;99.90
43151;DHT22;28755;51.478;5.702;2023-03-02T05:38:06;0.00;99.90
43151;DHT22;28755;51.478;5.702;2023-03-02T05:40:32;0.00;99.90
43151;DHT22;28755;51.478;5.702;2023-03-02T05:42:58;0.00;99.90
43151;DHT22;28755;51.478;5.702;2023-03-02T05:45:28;0.00;99.90
43151;DHT22;28755;51.478;5.702;2023-03-02T05:47:54;0.00;99.90
43151;DHT22;28755;51.478;5.702;2023-03-02T05:50:20;-0.10;99.90
43151;DHT22;28755;51.478;5.702;2023-03-02T05:52:45;-0.10;99.90
43151;DHT22;28755;51.478;5.702;2023-03-02T05:55:12;-0.10;99.90
43151;DHT22;28755;51.478;5.702;2023-03-02T05:57:39;-0.10;99.90
43151;DHT22;28755;51.478;5.702;2023-03-02T06:00:05;-0.10;99.90
43151;DHT22;28755;51.478;5.702;2023-03-02T06:02:31;-0.10;99.90
43151;DHT22;28755;51.478;5.702;2023-03-02T06:04:57;-0.10;99.90
43151;DHT22;28755;51.478;5.702;2023-03-02T06:07:22;-0.10;99.90
43151;DHT22;28755;51.478;5.702;2023-03-02T06:09:48;-0.10;99.90
43151;DHT22;28755;51.478;5.702;2023-03-02T06:12:15;-0.20;99.90
43151;DHT22;28755;51.478;5.702;2023-03-02T06:14:42;-0.20;99.90
43151;DHT22;28755;51.478;5.702;2023-03-02T06:17:08;-0.20;99.90
43151;DHT22;28755;51.478;5.702;2023-03-02T06:19:34;-0.20;99.90
43151;DHT22;28755;51.478;5.702;2023-03-02T06:22:00;-0.10;99.90
43151;DHT22;28755;51.478;5.702;2023-03-02T06:24:25;-0.10;99.90
43151;DHT22;28755;51.478;5.702;2023-03-02T06:26:54;-0.10;99.90
43151;DHT22;28755;51.478;5.702;2023-03-02T06:29:20;-0.10;99.90
43151;DHT22;28755;51.478;5.702;2023-03-02T06:31:46;-0.10;99.90
43151;DHT22;28755;51.478;5.702;2023-03-02T06:34:11;-0.10;99.90
43151;DHT22;28755;51.478;5.702;2023-03-02T06:36:37;-0.10;99.90
43151;DHT22;28755;51.478;5.702;2023-03-02T06:39:04;-0.10;99.90
43151;DHT22;28755;51.478;5.702;2023-03-02T06:41:29;0.00;99.90
43151;DHT22;28755;51.478;5.702;2023-03-02T06:43:55;0.00;99.90
43151;DHT22;28755;51.478;5.702;2023-03-02T06:46:21;0.00;99.90
43151;DHT22;28755;51.478;5.702;2023-03-02T06:48:46;0.10;99.90
43151;DHT22;28755;51.478;5.702;2023-03-02T06:51:12;0.10;99.90
43151;DHT22;28755;51.478;5.702;2023-03-02T06:53:37;0.20;99.90
43151;DHT22;28755;51.478;5.702;2023-03-02T06:56:03;0.30;99.90
43151;DHT22;28755;51.478;5.702;2023-03-02T06:58:29;0.40;99.90
43151;DHT22;28755;51.478;5.702;2023-03-02T07:00:54;0.50;99.90
43151;DHT22;28755;51.478;5.702;2023-03-02T07:03:20;0.90;99.90
43151;DHT22;28755;51.478;5.702;2023-03-02T07:05:45;1.40;99.90
43151;DHT22;28755;51.478;5.702;2023-03-02T07:08:13;2.10;99.90
43151;DHT22;28755;51.478;5.702;2023-03-02T07:10:38;2.90;99.90
43151;DHT22;28755;51.478;5.702;2023-03-02T07:13:04;3.40;99.90
43151;DHT22;28755;51.478;5.702;2023-03-02T07:15:29;3.70;99.90
43151;DHT22;28755;51.478;5.702;2023-03-02T07:17:55;4.10;99.90
43151;DHT22;28755;51.478;5.702;2023-03-02T07:20:21;4.60;99.90
43151;DHT22;28755;51.478;5.702;2023-03-02T07:22:46;4.90;99.90
43151;DHT22;28755;51.478;5.702;2023-03-02T07:25:12;5.50;99.90
43151;DHT22;28755;51.478;5.702;2023-03-02T07:27:38;5.90;99.90
43151;DHT22;28755;51.478;5.702;2023-03-02T07:30:05;6.10;99.90
43151;DHT22;28755;51.478;5.702;2023-03-02T07:32:31;6.30;99.90
43151;DHT22;28755;51.478;5.702;2023-03-02T07:34:56;6.30;99.90
43151;DHT22;28755;51.478;5.702;2023-03-02T07:37:22;6.40;99.90
43151;DHT22;28755;51.478;5.702;2023-03-02T07:39:47;6.10;99.90
43151;DHT22;28755;51.478;5.702;2023-03-02T07:42:13;6.10;99.90
43151;DHT22;28755;51.478;5.702;2023-03-02T07:44:39;5.80;99.90
43151;DHT22;28755;51.478;5.702;2023-03-02T07:47:05;5.90;99.90
43151;DHT22;28755;51.478;5.702;2023-03-02T07:49:31;6.20;99.90
43151;DHT22;28755;51.478;5.702;2023-03-02T07:51:56;6.50;99.90
43151;DHT22;28755;51.478;5.702;2023-03-02T07:54:22;6.30;99.90
43151;DHT22;28755;51.478;5.702;2023-03-02T07:56:50;5.70;99.90
43151;DHT22;28755;51.478;5.702;2023-03-02T07:59:16;5.50;99.90
43151;DHT22;28755;51.478;5.702;2023-03-02T08:01:41;5.60;99.90
43151;DHT22;28755;51.478;5.702;2023-03-02T08:04:07;5.50;99.90
43151;DHT22;28755;51.478;5.702;2023-03-02T08:06:33;5.80;99.90
43151;DHT22;28755;51.478;5.702;2023-03-02T08:09:01;5.80;99.90
43151;DHT22;28755;51.478;5.702;2023-03-02T08:11:26;5.90;99.90
43151;DHT22;28755;51.478;5.702;2023-03-02T08:13:52;5.90;99.90
43151;DHT22;28755;51.478;5.702;2023-03-02T08:16:18;5.70;99.90
43151;DHT22;28755;51.478;5.702;2023-03-02T08:18:43;6.10;99.90
43151;DHT22;28755;51.478;5.702;2023-03-02T08:21:20;6.10;99.90
43151;DHT22;28755;51.478;5.702;2023-03-02T08:23:46;6.30;99.90
43151;DHT22;28755;51.478;5.702;2023-03-02T08:26:12;6.60;99.90
43151;DHT22;28755;51.478;5.702;2023-03-02T08:28:38;7.20;99.90
43151;DHT22;28755;51.478;5.702;2023-03-02T08:31:04;8.70;99.90
43151;DHT22;28755;51.478;5.702;2023-03-02T08:33:30;9.20;99.90
43151;DHT22;28755;51.478;5.702;2023-03-02T08:36:12;8.30;99.90
43151;DHT22;28755;51.478;5.702;2023-03-02T08:38:38;8.00;99.90
43151;DHT22;28755;51.478;5.702;2023-03-02T08:41:06;7.60;99.90
43151;DHT22;28755;51.478;5.702;2023-03-02T08:43:32;8.10;99.90
43151;DHT22;28755;51.478;5.702;2023-03-02T08:45:58;8.60;99.90
43151;DHT22;28755;51.478;5.702;2023-03-02T08:48:25;9.60;99.90
43151;DHT22;28755;51.478;5.702;2023-03-02T08:51:09;10.60;99.90
43151;DHT22;28755;51.478;5.702;2023-03-02T08:53:38;11.30;99.90
43151;DHT22;28755;51.478;5.702;2023-03-02T08:56:04;11.90;99.90
43151;DHT22;28755;51.478;5.702;2023-03-02T08:58:32;11.50;99.90
43151;DHT22;28755;51.478;5.702;2023-03-02T09:00:58;11.50;99.90
43151;DHT22;28755;51.478;5.702;2023-03-02T09:03:23;12.30;99.90
43151;DHT22;28755;51.478;5.702;2023-03-02T09:05:49;13.20;99.90
43151;DHT22;28755;51.478;5.702;2023-03-02T09:08:15;13.10;99.60
43151;DHT22;28755;51.478;5.702;2023-03-02T09:10:41;13.30;99.20
43151;DHT22;28755;51.478;5.702;2023-03-02T09:13:06;13.90;98.40
43151;DHT22;28755;51.478;5.702;2023-03-02T09:15:32;14.40;97.30
43151;DHT22;28755;51.478;5.702;2023-03-02T09:17:57;14.80;96.50
43151;DHT22;28755;51.478;5.702;2023-03-02T09:20:23;15.90;95.50
43151;DHT22;28755;51.478;5.702;2023-03-02T09:22:48;16.70;94.10
43151;DHT22;28755;51.478;5.702;2023-03-02T09:25:16;17.50;92.70
43151;DHT22;28755;51.478;5.702;2023-03-02T09:27:43;17.90;91.30
43151;DHT22;28755;51.478;5.702;2023-03-02T09:30:09;18.10;90.50
43151;DHT22;28755;51.478;5.702;2023-03-02T09:32:34;17.70;88.60
43151;DHT22;28755;51.478;5.702;2023-03-02T09:35:00;17.90;89.10
43151;DHT22;28755;51.478;5.702;2023-03-02T09:37:28;18.10;86.60
43151;DHT22;28755;51.478;5.702;2023-03-02T09:39:54;17.10;86.70
43151;DHT22;28755;51.478;5.702;2023-03-02T09:45:29;17.00;86.80
43151;DHT22;28755;51.478;5.702;2023-03-02T09:48:16;18.00;85.80
43151;DHT22;28755;51.478;5.702;2023-03-02T09:51:12;18.10;84.40
43151;DHT22;28755;51.478;5.702;2023-03-02T09:53:47;18.00;84.00
43151;DHT22;28755;51.478;5.702;2023-03-02T09:56:17;18.10;83.90
43151;DHT22;28755;51.478;5.702;2023-03-02T09:58:48;18.10;82.00
43151;DHT22;28755;51.478;5.702;2023-03-02T10:01:27;18.30;82.70
43151;DHT22;28755;51.478;5.702;2023-03-02T10:04:02;18.60;81.30
43151;DHT22;28755;51.478;5.702;2023-03-02T10:06:29;18.70;80.30
43151;DHT22;28755;51.478;5.702;2023-03-02T10:08:55;18.90;81.10
43151;DHT22;28755;51.478;5.702;2023-03-02T10:11:49;19.40;79.80
43151;DHT22;28755;51.478;5.702;2023-03-02T10:14:56;19.60;79.20
43151;DHT22;28755;51.478;5.702;2023-03-02T10:17:38;20.40;78.50
43151;DHT22;28755;51.478;5.702;2023-03-02T10:20:23;21.10;77.10
43151;DHT22;28755;51.478;5.702;2023-03-02T10:22:54;21.40;75.80
43151;DHT22;28755;51.478;5.702;2023-03-02T10:28:16;20.60;75.50
43151;DHT22;28755;51.478;5.702;2023-03-02T10:30:45;21.30;75.60
43151;DHT22;28755;51.478;5.702;2023-03-02T10:33:14;21.50;75.40
43151;DHT22;28755;51.478;5.702;2023-03-02T10:35:44;20.80;74.10
43151;DHT22;28755;51.478;5.702;2023-03-02T10:38:17;21.00;74.90
43151;DHT22;28755;51.478;5.702;2023-03-02T10:40:51;21.70;74.40
43151;DHT22;28755;51.478;5.702;2023-03-02T10:43:35;22.00;73.00
43151;DHT22;28755;51.478;5.702;2023-03-02T10:46:05;21.70;73.00
43151;DHT22;28755;51.478;5.702;2023-03-02T10:51:42;21.20;73.00
43151;DHT22;28755;51.478;5.702;2023-03-02T10:54:12;20.60;73.50
43151;DHT22;28755;51.478;5.702;2023-03-02T10:56:41;20.60;73.10
43151;DHT22;28755;51.478;5.702;2023-03-02T10:59:41;21.60;73.20
43151;DHT22;28755;51.478;5.702;2023-03-02T11:04:42;21.90;71.20
43151;DHT22;28755;51.478;5.702;2023-03-02T11:07:17;21.20;72.50
43151;DHT22;28755;51.478;5.702;2023-03-02T11:10:00;22.30;72.00
43151;DHT22;28755;51.478;5.702;2023-03-02T11:12:28;22.50;71.40
43151;DHT22;28755;51.478;5.702;2023-03-02T11:15:13;23.40;70.80
43151;DHT22;28755;51.478;5.702;2023-03-02T11:17:41;24.40;70.70
43151;DHT22;28755;51.478;5.702;2023-03-02T11:20:19;25.30;69.70
43151;DHT22;28755;51.478;5.702;2023-03-02T11:22:55;25.40;67.90
43151;DHT22;28755;51.478;5.702;2023-03-02T11:25:31;25.00;68.30
43151;DHT22;28755;51.478;5.702;2023-03-02T11:28:11;24.60;67.60
43151;DHT22;28755;51.478;5.702;2023-03-02T11:30:46;24.50;68.00
43151;DHT22;28755;51.478;5.702;2023-03-02T11:33:21;25.10;67.80
43151;DHT22;28755;51.478;5.702;2023-03-02T11:36:22;25.60;67.80
43151;DHT22;28755;51.478;5.702;2023-03-02T11:38:52;25.30;67.00
43151;DHT22;28755;51.478;5.702;2023-03-02T11:44:02;25.10;65.90
43151;DHT22;28755;51.478;5.702;2023-03-02T11:46:31;25.00;66.10
43151;DHT22;28755;51.478;5.702;2023-03-02T11:49:12;24.00;66.10
43151;DHT22;28755;51.478;5.702;2023-03-02T11:51:54;23.90;66.80
43151;DHT22;28755;51.478;5.702;2023-03-02T11:54:56;23.80;66.70
43151;DHT22;28755;51.478;5.702;2023-03-02T11:57:39;24.10;66.50
43151;DHT22;28755;51.478;5.702;2023-03-02T12:00:39;23.90;66.80
43151;DHT22;28755;51.478;5.702;2023-03-02T12:05:44;25.50;65.80
43151;DHT22;28755;51.478;5.702;2023-03-02T12:11:00;24.80;65.80
43151;DHT22;28755;51.478;5.702;2023-03-02T12:13:31;24.50;66.20
43151;DHT22;28755;51.478;5.702;2023-03-02T12:15:58;25.00;65.70
43151;DHT22;28755;51.478;5.702;2023-03-02T12:21:04;25.20;65.60
43151;DHT22;28755;51.478;5.702;2023-03-02T12:23:40;25.30;65.20
43151;DHT22;28755;51.478;5.702;2023-03-02T12:31:23;25.30;64.50
43151;DHT22;28755;51.478;5.702;2023-03-02T12:33:50;25.50;64.60
43151;DHT22;28755;51.478;5.702;2023-03-02T12:36:30;25.70;65.00
43151;DHT22;28755;51.478;5.702;2023-03-02T12:39:08;25.80;64.70
43151;DHT22;28755;51.478;5.702;2023-03-02T12:41:53;25.10;64.40
43151;DHT22;28755;51.478;5.702;2023-03-02T12:44:37;24.00;64.50
43151;DHT22;28755;51.478;5.702;2023-03-02T12:47:18;22.90;65.80
43151;DHT22;28755;51.478;5.702;2023-03-02T12:49:56;22.60;65.90
43151;DHT22;28755;51.478;5.702;2023-03-02T12:52:32;22.80;66.30
43151;DHT22;28755;51.478;5.702;2023-03-02T12:54:59;22.90;66.10
43151;DHT22;28755;51.478;5.702;2023-03-02T12:57:25;21.10;67.20
43151;DHT22;28755;51.478;5.702;2023-03-02T12:59:53;21.10;68.20
43151;DHT22;28755;51.478;5.702;2023-03-02T13:02:30;21.50;67.70
43151;DHT22;28755;51.478;5.702;2023-03-02T13:05:04;21.80;67.70
43151;DHT22;28755;51.478;5.702;2023-03-02T13:07:36;22.70;67.60
43151;DHT22;28755;51.478;5.702;2023-03-02T13:10:07;23.30;66.10
43151;DHT22;28755;51.478;5.702;2023-03-02T13:12:35;23.10;66.20
43151;DHT22;28755;51.478;5.702;2023-03-02T13:15:01;22.90;65.50
43151;DHT22;28755;51.478;5.702;2023-03-02T13:17:31;23.10;65.10
43151;DHT22;28755;51.478;5.702;2023-03-02T13:19:58;23.50;64.50
43151;DHT22;28755;51.478;5.702;2023-03-02T13:22:25;23.30;64.50
43151;DHT22;28755;51.478;5.702;2023-03-02T13:25:03;23.10;64.40
43151;DHT22;28755;51.478;5.702;2023-03-02T13:27:30;22.20;65.10
43151;DHT22;28755;51.478;5.702;2023-03-02T13:30:08;22.10;65.30
43151;DHT22;28755;51.478;5.702;2023-03-02T13:32:38;20.60;66.70
43151;DHT22;28755;51.478;5.702;2023-03-02T13:35:14;19.30;67.80
43151;DHT22;28755;51.478;5.702;2023-03-02T13:37:40;19.30;68.50
43151;DHT22;28755;51.478;5.702;2023-03-02T13:42:53;18.40;69.60
43151;DHT22;28755;51.478;5.702;2023-03-02T13:45:29;18.60;68.80
43151;DHT22;28755;51.478;5.702;2023-03-02T13:48:10;19.40;69.40
43151;DHT22;28755;51.478;5.702;2023-03-02T13:50:36;19.80;68.30
43151;DHT22;28755;51.478;5.702;2023-03-02T13:53:02;19.90;68.60
43151;DHT22;28755;51.478;5.702;2023-03-02T13:55:32;19.90;68.50
43151;DHT22;28755;51.478;5.702;2023-03-02T13:57:58;19.80;68.30
43151;DHT22;28755;51.478;5.702;2023-03-02T14:00:33;20.50;69.10
43151;DHT22;28755;51.478;5.702;2023-03-02T14:02:59;21.20;67.80
43151;DHT22;28755;51.478;5.702;2023-03-02T14:05:26;20.80;67.20
43151;DHT22;28755;51.478;5.702;2023-03-02T14:08:00;20.00;68.00
43151;DHT22;28755;51.478;5.702;2023-03-02T14:10:27;19.30;68.50
43151;DHT22;28755;51.478;5.702;2023-03-02T14:13:06;18.90;69.40
43151;DHT22;28755;51.478;5.702;2023-03-02T14:15:35;18.70;69.10
43151;DHT22;28755;51.478;5.702;2023-03-02T14:18:07;18.60;69.30
43151;DHT22;28755;51.478;5.702;2023-03-02T14:20:33;18.60;69.70
43151;DHT22;28755;51.478;5.702;2023-03-02T14:22:59;18.10;69.20
43151;DHT22;28755;51.478;5.702;2023-03-02T14:25:27;17.60;70.10
43151;DHT22;28755;51.478;5.702;2023-03-02T14:27:53;17.60;70.70
43151;DHT22;28755;51.478;5.702;2023-03-02T14:30:20;17.50;70.90
43151;DHT22;28755;51.478;5.702;2023-03-02T14:32:46;16.90;71.10
43151;DHT22;28755;51.478;5.702;2023-03-02T14:35:13;16.10;72.10
43151;DHT22;28755;51.478;5.702;2023-03-02T14:37:42;15.50;72.70
43151;DHT22;28755;51.478;5.702;2023-03-02T14:40:24;15.10;73.50
43151;DHT22;28755;51.478;5.702;2023-03-02T14:42:51;14.30;74.40
43151;DHT22;28755;51.478;5.702;2023-03-02T14:45:19;13.90;75.40
43151;DHT22;28755;51.478;5.702;2023-03-02T14:47:45;13.80;75.60
43151;DHT22;28755;51.478;5.702;2023-03-02T14:50:11;13.60;75.70
43151;DHT22;28755;51.478;5.702;2023-03-02T14:52:42;14.20;75.60
43151;DHT22;28755;51.478;5.702;2023-03-02T14:55:28;14.30;75.10
43151;DHT22;28755;51.478;5.702;2023-03-02T14:58:13;14.20;75.10
43151;DHT22;28755;51.478;5.702;2023-03-02T15:00:40;13.90;75.90
43151;DHT22;28755;51.478;5.702;2023-03-02T15:03:05;14.30;76.50
43151;DHT22;28755;51.478;5.702;2023-03-02T15:05:31;14.70;75.60
43151;DHT22;28755;51.478;5.702;2023-03-02T15:07:57;15.00;74.90
43151;DHT22;28755;51.478;5.702;2023-03-02T15:10:23;15.30;74.20
43151;DHT22;28755;51.478;5.702;2023-03-02T15:12:48;15.80;74.10
43151;DHT22;28755;51.478;5.702;2023-03-02T15:15:14;16.20;73.10
43151;DHT22;28755;51.478;5.702;2023-03-02T15:17:40;16.00;73.30
43151;DHT22;28755;51.478;5.702;2023-03-02T15:20:06;16.30;73.20
43151;DHT22;28755;51.478;5.702;2023-03-02T15:22:33;16.50;72.90
43151;DHT22;28755;51.478;5.702;2023-03-02T15:24:58;17.00;73.10
43151;DHT22;28755;51.478;5.702;2023-03-02T15:27:24;17.20;72.60
43151;DHT22;28755;51.478;5.702;2023-03-02T15:29:50;17.80;71.70
43151;DHT22;28755;51.478;5.702;2023-03-02T15:32:15;17.50;71.70
43151;DHT22;28755;51.478;5.702;2023-03-02T15:34:41;17.50;71.40
43151;DHT22;28755;51.478;5.702;2023-03-02T15:37:09;17.90;72.00
43151;DHT22;28755;51.478;5.702;2023-03-02T15:39:35;18.20;71.60
43151;DHT22;28755;51.478;5.702;2023-03-02T15:42:01;18.00;71.80
43151;DHT22;28755;51.478;5.702;2023-03-02T15:44:27;18.60;71.80
43151;DHT22;28755;51.478;5.702;2023-03-02T15:46:55;19.00;71.10
43151;DHT22;28755;51.478;5.702;2023-03-02T15:49:21;19.60;70.70
43151;DHT22;28755;51.478;5.702;2023-03-02T15:51:52;19.60;70.50
43151;DHT22;28755;51.478;5.702;2023-03-02T15:54:19;19.40;70.80
43151;DHT22;28755;51.478;5.702;2023-03-02T15:56:45;19.20;71.00
43151;DHT22;28755;51.478;5.702;2023-03-02T15:59:16;19.10;71.20
43151;DHT22;28755;51.478;5.702;2023-03-02T16:01:42;18.80;71.60
43151;DHT22;28755;51.478;5.702;2023-03-02T16:04:08;18.70;71.80
43151;DHT22;28755;51.478;5.702;2023-03-02T16:06:33;18.70;71.90
43151;DHT22;28755;51.478;5.702;2023-03-02T16:08:59;18.60;71.80
43151;DHT22;28755;51.478;5.702;2023-03-02T16:11:24;18.50;72.30
43151;DHT22;28755;51.478;5.702;2023-03-02T16:13:50;18.40;72.00
43151;DHT22;28755;51.478;5.702;2023-03-02T16:16:17;18.00;72.30
43151;DHT22;28755;51.478;5.702;2023-03-02T16:18:48;17.50;73.00
43151;DHT22;28755;51.478;5.702;2023-03-02T16:21:14;17.20;73.20